createdAt,value
2023-02-23T00:02:06.565Z,12.40
2023-02-23T00:05:09.094Z,12.30
2023-02-23T00:08:11.284Z,12.40
2023-02-23T00:11:14.705Z,12.30
2023-02-23T00:14:17.365Z,12.30
2023-02-23T00:17:19.723Z,12.20
2023-02-23T00:20:27.897Z,12.20
2023-02-23T00:23:31.039Z,12.20
2023-02-23T00:26:35.380Z,12.20
2023-02-23T00:29:40.669Z,12.10
2023-02-23T00:32:43.394Z,12.10
2023-02-23T00:35:45.500Z,12.10
2023-02-23T00:38:48.141Z,12.10
2023-02-23T00:41:52.691Z,12.10
2023-02-23T00:44:55.257Z,12.00
2023-02-23T00:47:57.580Z,12.00
2023-02-23T00:51:04.857Z,12.00
2023-02-23T00:54:08.368Z,12.00
2023-02-23T00:57:13.069Z,12.00
2023-02-23T01:00:20.649Z,12.00
2023-02-23T01:03:22.973Z,12.10
2023-02-23T01:06:25.388Z,12.00
2023-02-23T01:09:28.732Z,12.00
2023-02-23T01:12:31.501Z,11.90
2023-02-23T01:15:33.661Z,11.90
2023-02-23T01:18:37.034Z,11.90
2023-02-23T01:21:42.361Z,11.80
2023-02-23T01:24:44.605Z,11.80
2023-02-23T01:27:46.927Z,11.70
2023-02-23T01:30:49.323Z,11.70
2023-02-23T01:33:56.001Z,11.70
2023-02-23T01:36:58.122Z,11.60
2023-02-23T01:40:00.264Z,11.70
2023-02-23T01:43:35.136Z,11.60
2023-02-23T01:46:39.406Z,11.70
2023-02-23T01:49:41.780Z,11.70
2023-02-23T01:52:46.992Z,11.60
2023-02-23T01:55:58.958Z,11.60
2023-02-23T01:59:06.797Z,11.70
2023-02-23T02:02:09.481Z,11.60
2023-02-23T02:05:13.619Z,11.70
2023-02-23T02:08:17.033Z,11.60
2023-02-23T02:11:30.935Z,11.60
2023-02-23T02:14:33.559Z,11.60
2023-02-23T02:18:09.591Z,11.60
2023-02-23T02:21:47.172Z,11.50
2023-02-23T02:25:26.852Z,11.50
2023-02-23T02:28:38.591Z,11.40
2023-02-23T02:31:40.882Z,11.40
2023-02-23T02:35:04.761Z,11.40
2023-02-23T02:38:31.265Z,11.40
2023-02-23T02:41:51.546Z,11.40
2023-02-23T02:45:00.023Z,11.30
2023-02-23T02:48:18.649Z,11.20
2023-02-23T02:51:45.561Z,11.30
2023-02-23T02:54:56.628Z,11.30
2023-02-23T02:58:02.408Z,11.20
2023-02-23T03:01:32.025Z,11.20
2023-02-23T03:04:52.702Z,11.30
2023-02-23T03:08:47.371Z,11.20
2023-02-23T03:12:22.947Z,11.20
2023-02-23T03:15:49.678Z,11.20
2023-02-23T03:19:26.585Z,11.10
2023-02-23T03:22:57.895Z,11.00
2023-02-23T03:26:41.779Z,11.00
2023-02-23T03:30:49.159Z,11.00
2023-02-23T03:34:26.426Z,10.90
2023-02-23T03:37:52.829Z,10.90
2023-02-23T03:41:15.005Z,10.90
2023-02-23T03:44:45.131Z,10.90
2023-02-23T03:48:07.053Z,10.90
2023-02-23T03:51:31.680Z,10.90
2023-02-23T03:54:57.991Z,10.90
2023-02-23T03:58:21.344Z,10.90
2023-02-23T04:01:45.875Z,10.90
2023-02-23T04:05:08.670Z,10.90
2023-02-23T04:08:35.081Z,10.80
2023-02-23T04:12:09.927Z,10.80
2023-02-23T04:15:25.366Z,10.80
2023-02-23T04:18:34.392Z,10.80
2023-02-23T04:21:37.442Z,10.80
2023-02-23T04:24:39.989Z,10.80
2023-02-23T04:27:43.496Z,10.80
2023-02-23T04:30:46.362Z,10.80
2023-02-23T04:33:48.708Z,10.80
2023-02-23T04:36:53.987Z,10.80
2023-02-23T04:39:56.256Z,10.80
2023-02-23T04:42:58.990Z,10.70
2023-02-23T04:46:03.719Z,10.70
2023-02-23T04:49:05.896Z,10.70
2023-02-23T04:52:08.147Z,10.60
2023-02-23T04:55:21.764Z,10.60
2023-02-23T04:58:23.933Z,10.60
2023-02-23T05:01:27.264Z,10.50
2023-02-23T05:04:29.794Z,10.50
2023-02-23T05:07:32.306Z,10.50
2023-02-23T05:10:35.137Z,10.50
2023-02-23T05:13:37.680Z,10.50
2023-02-23T05:16:40.276Z,10.50
2023-02-23T05:19:42.416Z,10.50
2023-02-23T05:22:44.633Z,10.40
2023-02-23T05:25:46.767Z,10.40
2023-02-23T05:28:49.029Z,10.40
2023-02-23T05:31:51.515Z,10.30
2023-02-23T05:34:54.801Z,10.30
2023-02-23T05:37:57.208Z,10.30
2023-02-23T05:40:59.580Z,10.30
2023-02-23T05:44:02.046Z,10.30
2023-02-23T05:47:04.742Z,10.30
2023-02-23T05:50:10.307Z,10.30
2023-02-23T05:53:12.756Z,10.30
2023-02-23T05:56:20.576Z,10.30
2023-02-23T05:59:23.021Z,10.30
2023-02-23T06:02:25.606Z,10.20
2023-02-23T06:05:28.560Z,10.20
2023-02-23T06:08:30.712Z,10.20
2023-02-23T06:11:32.879Z,10.20
2023-02-23T06:14:37.589Z,10.10
2023-02-23T06:17:40.064Z,10.10
2023-02-23T06:20:42.199Z,10.10
2023-02-23T06:23:44.409Z,10.10
2023-02-23T06:26:47.037Z,10.00
2023-02-23T06:29:49.326Z,10.00
2023-02-23T06:32:51.645Z,10.00
2023-02-23T06:35:54.873Z,9.90
2023-02-23T06:38:58.345Z,10.00
2023-02-23T06:42:00.597Z,9.90
2023-02-23T06:45:05.463Z,9.90
2023-02-23T06:48:08.751Z,9.90
2023-02-23T06:51:11.277Z,9.90
2023-02-23T06:54:13.395Z,10.00
2023-02-23T06:57:15.695Z,10.00
2023-02-23T07:00:19.071Z,10.00
2023-02-23T07:03:21.563Z,10.00
2023-02-23T07:06:23.826Z,10.00
2023-02-23T07:09:29.139Z,9.90
2023-02-23T07:12:33.053Z,9.80
2023-02-23T07:15:37.060Z,9.90
2023-02-23T07:18:39.425Z,9.80
2023-02-23T07:21:41.788Z,9.90
2023-02-23T07:24:44.109Z,9.80
2023-02-23T07:27:46.592Z,9.90
2023-02-23T07:30:50.091Z,10.00
2023-02-23T07:33:54.966Z,10.00
2023-02-23T07:36:57.436Z,10.20
2023-02-23T07:40:01.125Z,10.40
2023-02-23T07:43:04.893Z,10.50
2023-02-23T07:46:07.448Z,10.60
2023-02-23T07:49:10.093Z,10.70
2023-02-23T07:52:12.191Z,10.70
2023-02-23T07:55:14.574Z,10.80
2023-02-23T07:58:16.783Z,11.00
2023-02-23T08:01:19.300Z,11.20
2023-02-23T08:04:22.010Z,11.30
2023-02-23T08:07:26.074Z,11.50
2023-02-23T08:10:28.527Z,11.60
2023-02-23T08:13:31.690Z,11.70
2023-02-23T08:16:34.346Z,11.80
2023-02-23T08:19:37.518Z,12.60
2023-02-23T08:22:49.005Z,13.70
2023-02-23T08:25:54.143Z,15.40
2023-02-23T08:28:56.719Z,17.10
2023-02-23T08:31:59.186Z,18.30
2023-02-23T08:35:05.240Z,19.30
2023-02-23T08:38:07.918Z,20.00
2023-02-23T08:41:10.711Z,20.90
2023-02-23T08:44:13.038Z,21.70
2023-02-23T08:47:22.165Z,22.30
2023-02-23T08:50:27.037Z,22.60
2023-02-23T08:53:30.970Z,23.10
2023-02-23T08:56:33.519Z,23.80
2023-02-23T08:59:35.850Z,24.20
2023-02-23T09:02:39.039Z,23.70
2023-02-23T09:05:41.538Z,23.90
2023-02-23T09:08:44.077Z,24.10
2023-02-23T09:11:46.580Z,24.10
2023-02-23T09:14:49.477Z,24.80
2023-02-23T09:17:51.812Z,25.20
2023-02-23T09:20:54.083Z,26.00
2023-02-23T09:23:56.869Z,25.40
2023-02-23T09:26:59.254Z,25.00
2023-02-23T09:30:01.721Z,24.80
2023-02-23T09:33:04.424Z,25.50
2023-02-23T09:36:08.843Z,26.20
2023-02-23T09:39:11.288Z,26.50
2023-02-23T09:42:20.409Z,27.40
2023-02-23T09:45:42.326Z,28.00
2023-02-23T09:48:47.686Z,27.60
2023-02-23T09:51:55.669Z,26.70
2023-02-23T09:54:59.048Z,26.30
2023-02-23T09:58:23.874Z,26.70
2023-02-23T10:01:43.667Z,27.10
2023-02-23T10:05:03.300Z,26.40
2023-02-23T10:08:39.889Z,26.30
2023-02-23T10:11:58.624Z,27.20
2023-02-23T10:15:19.598Z,26.20
2023-02-23T10:19:13.272Z,26.00
2023-02-23T10:22:18.745Z,27.00
2023-02-23T10:25:25.964Z,27.30
2023-02-23T10:28:33.492Z,26.70
2023-02-23T10:31:43.072Z,26.50
2023-02-23T10:34:48.568Z,26.90
2023-02-23T10:37:52.663Z,27.40
2023-02-23T10:40:55.848Z,27.20
2023-02-23T10:44:10.895Z,27.60
2023-02-23T10:47:37.954Z,28.20
2023-02-23T10:50:42.533Z,27.80
2023-02-23T10:53:44.860Z,28.10
2023-02-23T10:56:47.729Z,27.30
2023-02-23T11:00:13.772Z,26.90
2023-02-23T11:03:38.015Z,27.20
2023-02-23T11:06:40.705Z,26.50
2023-02-23T11:09:47.390Z,25.90
2023-02-23T11:12:50.336Z,26.60
2023-02-23T11:16:20.009Z,27.30
2023-02-23T11:19:37.205Z,26.80
2023-02-23T11:22:42.522Z,25.80
2023-02-23T11:25:49.584Z,26.20
2023-02-23T11:28:55.483Z,26.30
2023-02-23T11:31:59.104Z,25.90
2023-02-23T11:35:19.992Z,25.50
2023-02-23T11:38:22.117Z,24.70
2023-02-23T11:41:24.936Z,24.50
2023-02-23T11:44:27.995Z,25.50
2023-02-23T11:47:32.201Z,25.40
2023-02-23T11:50:36.208Z,24.80
2023-02-23T11:53:45.075Z,23.40
2023-02-23T11:56:55.242Z,23.20
2023-02-23T12:00:00.648Z,22.80
2023-02-23T12:03:05.637Z,22.70
2023-02-23T12:06:10.251Z,21.80
2023-02-23T12:09:29.218Z,20.90
2023-02-23T12:12:34.906Z,20.00
2023-02-23T12:15:49.555Z,19.50
2023-02-23T12:19:03.956Z,19.20
2023-02-23T12:22:24.072Z,18.90
2023-02-23T12:25:42.697Z,18.40
2023-02-23T12:28:58.960Z,17.80
2023-02-23T12:32:08.560Z,17.40
2023-02-23T12:35:30.745Z,17.30
2023-02-23T12:38:52.430Z,17.30
2023-02-23T12:42:16.578Z,17.00
2023-02-23T12:46:00.055Z,16.50
2023-02-23T12:49:30.362Z,16.40
2023-02-23T12:52:38.269Z,16.00
2023-02-23T12:56:04.905Z,15.80
2023-02-23T12:59:08.739Z,15.80
2023-02-23T13:02:26.527Z,15.70
2023-02-23T13:05:32.734Z,15.50
2023-02-23T13:09:12.401Z,15.30
2023-02-23T13:12:36.879Z,15.00
2023-02-23T13:16:33.260Z,15.20
2023-02-23T13:19:35.379Z,15.30
2023-02-23T13:23:06.641Z,15.40
2023-02-23T13:26:13.146Z,15.20
2023-02-23T13:29:37.833Z,15.20
2023-02-23T13:32:40.522Z,15.10
2023-02-23T13:35:43.064Z,15.20
2023-02-23T13:39:19.344Z,15.20
2023-02-23T13:42:36.571Z,15.10
2023-02-23T13:45:52.043Z,15.20
2023-02-23T13:49:16.583Z,15.10
2023-02-23T13:52:40.900Z,15.10
2023-02-23T13:55:51.480Z,15.00
2023-02-23T13:59:09.832Z,15.00
2023-02-23T14:02:28.366Z,14.70
2023-02-23T14:05:31.807Z,14.50
2023-02-23T14:08:42.295Z,14.40
2023-02-23T14:12:17.025Z,14.20
2023-02-23T14:15:25.509Z,14.30
2023-02-23T14:18:33.178Z,14.40
2023-02-23T14:21:50.019Z,14.40
2023-02-23T14:25:30.398Z,14.50
2023-02-23T14:28:33.557Z,14.60
2023-02-23T14:31:36.250Z,14.60
2023-02-23T14:34:58.048Z,14.50
2023-02-23T14:38:04.283Z,14.50
2023-02-23T14:41:09.991Z,14.40
2023-02-23T14:44:41.513Z,14.40
2023-02-23T14:47:48.801Z,14.40
2023-02-23T14:50:51.830Z,14.50
2023-02-23T14:53:59.352Z,14.50
2023-02-23T14:57:04.813Z,14.60
2023-02-23T15:00:33.155Z,14.50
2023-02-23T15:03:35.561Z,14.30
2023-02-23T15:06:42.380Z,14.20
2023-02-23T15:09:47.826Z,14.40
2023-02-23T15:12:50.697Z,14.40
2023-02-23T15:15:53.474Z,14.30
2023-02-23T15:18:57.362Z,14.20
2023-02-23T15:22:01.845Z,14.10
2023-02-23T15:25:23.140Z,14.20
2023-02-23T15:28:29.681Z,14.10
2023-02-23T15:31:32.348Z,14.10
2023-02-23T15:34:35.551Z,14.10
2023-02-23T15:40:56.842Z,13.90
2023-02-23T15:44:27.530Z,13.90
2023-02-23T15:47:37.447Z,13.90
2023-02-23T15:50:44.960Z,13.90
2023-02-23T15:53:48.298Z,13.90
2023-02-23T15:56:57.426Z,14.00
2023-02-23T16:00:05.634Z,13.90
2023-02-23T16:03:21.596Z,13.70
2023-02-23T16:06:33.013Z,13.40
2023-02-23T16:09:39.001Z,13.30
2023-02-23T16:12:45.095Z,13.30
2023-02-23T16:15:49.163Z,13.20
2023-02-23T16:19:02.076Z,13.00
2023-02-23T16:22:06.313Z,12.80
2023-02-23T16:25:16.588Z,12.90
2023-02-23T16:28:21.760Z,12.90
2023-02-23T16:31:42.111Z,12.80
2023-02-23T16:35:00.008Z,12.80
2023-02-23T16:38:03.973Z,12.90
2023-02-23T16:41:22.989Z,12.90
2023-02-23T16:44:34.262Z,13.00
2023-02-23T16:47:50.061Z,13.00
2023-02-23T16:50:52.644Z,13.00
2023-02-23T16:53:54.813Z,12.90
2023-02-23T16:56:57.125Z,12.80
2023-02-23T17:00:00.571Z,12.80
2023-02-23T17:03:06.866Z,12.90
2023-02-23T17:06:09.307Z,12.80
2023-02-23T17:09:12.903Z,12.80
2023-02-23T17:12:21.894Z,12.80
2023-02-23T17:15:27.555Z,12.70
2023-02-23T17:18:31.903Z,12.60
2023-02-23T17:21:34.389Z,12.60
2023-02-23T17:24:36.870Z,12.60
2023-02-23T17:27:39.304Z,12.60
2023-02-23T17:30:43.883Z,12.40
2023-02-23T17:33:47.271Z,12.40
2023-02-23T17:36:51.862Z,12.40
2023-02-23T17:39:54.164Z,12.40
2023-02-23T17:42:59.072Z,12.30
2023-02-23T17:46:01.388Z,12.30
2023-02-23T17:49:04.000Z,12.00
2023-02-23T17:52:06.136Z,12.00
2023-02-23T17:55:09.504Z,11.90
2023-02-23T17:58:14.197Z,11.90
2023-02-23T18:01:18.279Z,11.80
2023-02-23T18:04:20.819Z,11.80
2023-02-23T18:07:23.168Z,11.80
2023-02-23T18:10:26.136Z,11.70
2023-02-23T18:13:30.691Z,11.70
2023-02-23T18:16:34.759Z,11.60
2023-02-23T18:19:36.917Z,11.60
2023-02-23T18:22:39.525Z,11.50
2023-02-23T18:25:41.833Z,11.50
2023-02-23T18:28:45.987Z,11.50
2023-02-23T18:31:50.074Z,11.50
2023-02-23T18:34:52.823Z,11.40
2023-02-23T18:37:55.676Z,11.50
2023-02-23T18:40:58.874Z,11.40
2023-02-23T18:44:02.706Z,11.40
2023-02-23T18:47:06.585Z,11.30
2023-02-23T18:50:12.934Z,11.20
2023-02-23T18:53:15.239Z,11.20
2023-02-23T18:56:23.248Z,11.20
2023-02-23T18:59:25.579Z,11.10
2023-02-23T19:02:27.807Z,11.00
2023-02-23T19:05:30.389Z,10.90
2023-02-23T19:08:32.554Z,10.90
2023-02-23T19:11:35.851Z,10.90
2023-02-23T19:14:49.325Z,10.80
2023-02-23T19:17:52.253Z,10.80
2023-02-23T19:20:55.594Z,10.80
2023-02-23T19:23:58.726Z,10.70
2023-02-23T19:27:01.412Z,10.70
2023-02-23T19:30:04.200Z,10.70
2023-02-23T19:33:06.683Z,10.70
2023-02-23T19:36:12.098Z,10.60
2023-02-23T19:39:15.815Z,10.60
2023-02-23T19:42:19.549Z,10.60
2023-02-23T19:45:22.173Z,10.50
2023-02-23T19:48:25.496Z,10.60
2023-02-23T19:51:27.717Z,10.60
2023-02-23T19:54:34.185Z,10.60
2023-02-23T19:57:36.408Z,10.60
2023-02-23T20:00:40.139Z,10.60
2023-02-23T20:03:45.261Z,10.50
2023-02-23T20:06:47.446Z,10.50
2023-02-23T20:09:49.617Z,10.50
2023-02-23T20:12:53.685Z,10.50
2023-02-23T20:16:03.275Z,10.50
2023-02-23T20:19:07.756Z,10.40
2023-02-23T20:22:10.088Z,10.40
2023-02-23T20:25:16.025Z,10.30
2023-02-23T20:28:18.415Z,10.30
2023-02-23T20:31:29.847Z,10.30
2023-02-23T20:34:35.977Z,10.30
2023-02-23T20:37:39.388Z,10.30
2023-02-23T20:40:42.266Z,10.30
2023-02-23T20:43:45.668Z,10.30
2023-02-23T20:46:48.495Z,10.30
2023-02-23T20:49:50.826Z,10.30
2023-02-23T20:52:53.325Z,10.30
2023-02-23T20:55:56.376Z,10.20
2023-02-23T20:58:59.330Z,10.20
2023-02-23T21:02:01.908Z,10.30
2023-02-23T21:05:05.358Z,10.20
2023-02-23T21:08:09.079Z,10.30
2023-02-23T21:11:11.764Z,10.30
2023-02-23T21:14:14.564Z,10.20
2023-02-23T21:17:16.863Z,10.30
2023-02-23T21:20:23.354Z,10.30
2023-02-23T21:23:26.124Z,10.20
2023-02-23T21:26:30.703Z,10.20
2023-02-23T21:29:32.991Z,10.10
2023-02-23T21:32:41.348Z,10.10
2023-02-23T21:35:44.001Z,10.10
2023-02-23T21:38:46.530Z,10.10
2023-02-23T21:41:49.027Z,10.10
2023-02-23T21:44:51.437Z,10.00
2023-02-23T21:47:53.925Z,10.00
2023-02-23T21:51:02.654Z,10.00
2023-02-23T21:54:06.458Z,10.00
2023-02-23T21:57:11.910Z,10.00
2023-02-23T22:00:16.443Z,10.00
2023-02-23T22:03:20.284Z,9.90
2023-02-23T22:06:28.000Z,9.80
2023-02-23T22:09:30.286Z,9.80
2023-02-23T22:12:33.007Z,9.80
2023-02-23T22:15:38.193Z,9.70
2023-02-23T22:18:41.647Z,9.70
2023-02-23T22:21:44.866Z,9.70
2023-02-23T22:24:50.626Z,9.70
2023-02-23T22:27:52.995Z,9.70
2023-02-23T22:30:56.053Z,9.70
2023-02-23T22:33:59.501Z,9.70
2023-02-23T22:37:01.649Z,9.70
2023-02-23T22:40:24.839Z,9.80
2023-02-23T22:43:30.223Z,9.80
2023-02-23T22:46:32.464Z,9.80
2023-02-23T22:49:34.937Z,9.80
2023-02-23T22:52:38.760Z,9.80
2023-02-23T22:55:49.645Z,9.80
2023-02-23T22:58:56.066Z,9.80
2023-02-23T23:01:58.720Z,9.80
2023-02-23T23:05:02.078Z,9.80
2023-02-23T23:08:04.341Z,9.70
2023-02-23T23:11:09.871Z,9.70
2023-02-23T23:14:12.689Z,9.70
2023-02-23T23:17:15.728Z,9.70
2023-02-23T23:20:25.792Z,9.70
2023-02-23T23:23:28.432Z,9.80
2023-02-23T23:26:40.172Z,9.80
2023-02-23T23:29:46.773Z,9.70
2023-02-23T23:32:49.224Z,9.70
2023-02-23T23:35:51.619Z,9.70
2023-02-23T23:38:56.601Z,9.70
2023-02-23T23:41:58.838Z,9.70
2023-02-23T23:45:02.219Z,9.70
2023-02-23T23:48:09.631Z,9.70
2023-02-23T23:51:12.032Z,9.70
2023-02-23T23:54:18.116Z,9.70
2023-02-23T23:57:21.409Z,9.70
